sensor_id;sensor_type;location;lat;lon;timestamp;pressure;altitude;pressure_sealevel;temperature;humidity
50302;BME280;36550;50.472;19.744;2023-02-21T00:02:34;97290.71;;;8.44;73.38
50302;BME280;36550;50.472;19.744;2023-02-21T00:05:52;97285.46;;;8.43;73.19
50302;BME280;36550;50.472;19.744;2023-02-21T00:09:15;97300.13;;;8.41;73.46
50302;BME280;36550;50.472;19.744;2023-02-21T00:12:58;97298.67;;;8.42;73.52
50302;BME280;36550;50.472;19.744;2023-02-21T00:16:28;97294.54;;;8.39;73.85
50302;BME280;36550;50.472;19.744;2023-02-21T00:19:34;97296.42;;;8.34;74.24
50302;BME280;36550;50.472;19.744;2023-02-21T00:23:17;97296.34;;;8.32;74.42
50302;BME280;36550;50.472;19.744;2023-02-21T00:26:23;97298.32;;;8.31;74.68
50302;BME280;36550;50.472;19.744;2023-02-21T00:29:40;97304.89;;;8.26;75.15
50302;BME280;36550;50.472;19.744;2023-02-21T00:33:02;97305.17;;;8.24;75.36
50302;BME280;36550;50.472;19.744;2023-02-21T00:36:29;97307.83;;;8.20;75.65
50302;BME280;36550;50.472;19.744;2023-02-21T00:39:53;97308.36;;;8.18;75.75
50302;BME280;36550;50.472;19.744;2023-02-21T00:43:00;97295.84;;;8.17;75.66
50302;BME280;36550;50.472;19.744;2023-02-21T00:46:26;97291.13;;;8.14;75.82
50302;BME280;36550;50.472;19.744;2023-02-21T00:49:30;97281.77;;;8.16;75.74
50302;BME280;36550;50.472;19.744;2023-02-21T00:52:55;97280.20;;;8.13;75.86
50302;BME280;36550;50.472;19.744;2023-02-21T00:56:32;97281.93;;;8.13;75.55
50302;BME280;36550;50.472;19.744;2023-02-21T00:59:35;97278.86;;;8.14;75.55
50302;BME280;36550;50.472;19.744;2023-02-21T01:03:18;97282.90;;;8.15;75.38
50302;BME280;36550;50.472;19.744;2023-02-21T01:06:42;97275.23;;;8.19;75.30
50302;BME280;36550;50.472;19.744;2023-02-21T01:10:16;97274.55;;;8.18;75.10
50302;BME280;36550;50.472;19.744;2023-02-21T01:13:39;97268.55;;;8.19;75.02
50302;BME280;36550;50.472;19.744;2023-02-21T01:17:22;97274.98;;;8.19;75.11
50302;BME280;36550;50.472;19.744;2023-02-21T01:21:04;97276.55;;;8.20;75.02
50302;BME280;36550;50.472;19.744;2023-02-21T01:24:50;97274.52;;;8.20;74.82
50302;BME280;36550;50.472;19.744;2023-02-21T01:28:32;97276.70;;;8.20;75.00
50302;BME280;36550;50.472;19.744;2023-02-21T01:32:15;97271.98;;;8.18;75.17
50302;BME280;36550;50.472;19.744;2023-02-21T01:35:39;97269.69;;;8.16;75.56
50302;BME280;36550;50.472;19.744;2023-02-21T01:39:01;97266.87;;;8.09;76.31
50302;BME280;36550;50.472;19.744;2023-02-21T01:42:24;97268.95;;;7.96;77.17
50302;BME280;36550;50.472;19.744;2023-02-21T01:45:41;97270.50;;;7.77;78.94
50302;BME280;36550;50.472;19.744;2023-02-21T01:49:22;97278.10;;;7.62;79.01
50302;BME280;36550;50.472;19.744;2023-02-21T01:53:11;97268.16;;;7.49;79.91
50302;BME280;36550;50.472;19.744;2023-02-21T01:56:32;97260.31;;;7.37;80.73
50302;BME280;36550;50.472;19.744;2023-02-21T02:00:15;97257.33;;;7.26;81.25
50302;BME280;36550;50.472;19.744;2023-02-21T02:03:38;97259.57;;;7.15;82.69
50302;BME280;36550;50.472;19.744;2023-02-21T02:07:08;97257.10;;;7.07;82.43
50302;BME280;36550;50.472;19.744;2023-02-21T02:10:52;97255.44;;;7.02;83.07
50302;BME280;36550;50.472;19.744;2023-02-21T02:14:52;97254.86;;;6.99;83.09
50302;BME280;36550;50.472;19.744;2023-02-21T02:18:03;97251.55;;;6.95;83.87
50302;BME280;36550;50.472;19.744;2023-02-21T02:25:36;97250.35;;;6.90;84.73
50302;BME280;36550;50.472;19.744;2023-02-21T02:36:33;97247.30;;;6.86;85.11
50302;BME280;36550;50.472;19.744;2023-02-21T02:40:22;97247.55;;;6.86;85.43
50302;BME280;36550;50.472;19.744;2023-02-21T02:43:54;97242.95;;;6.85;85.36
50302;BME280;36550;50.472;19.744;2023-02-21T02:47:18;97240.40;;;6.84;86.18
50302;BME280;36550;50.472;19.744;2023-02-21T02:50:17;97245.52;;;6.81;86.30
50302;BME280;36550;50.472;19.744;2023-02-21T02:53:02;97244.22;;;6.79;86.16
50302;BME280;36550;50.472;19.744;2023-02-21T02:56:11;97242.73;;;6.80;86.34
50302;BME280;36550;50.472;19.744;2023-02-21T02:59:34;97246.20;;;6.76;87.15
50302;BME280;36550;50.472;19.744;2023-02-21T03:06:46;97250.78;;;6.71;87.02
50302;BME280;36550;50.472;19.744;2023-02-21T03:16:24;97243.57;;;6.70;87.38
50302;BME280;36550;50.472;19.744;2023-02-21T03:19:48;97249.00;;;6.70;87.83
50302;BME280;36550;50.472;19.744;2023-02-21T03:23:14;97248.20;;;6.72;87.79
50302;BME280;36550;50.472;19.744;2023-02-21T03:26:28;97246.04;;;6.73;88.21
50302;BME280;36550;50.472;19.744;2023-02-21T03:29:52;97246.82;;;6.73;88.37
50302;BME280;36550;50.472;19.744;2023-02-21T03:33:02;97249.58;;;6.73;89.10
50302;BME280;36550;50.472;19.744;2023-02-21T03:36:07;97246.48;;;6.74;88.88
50302;BME280;36550;50.472;19.744;2023-02-21T03:39:50;97246.84;;;6.78;88.62
50302;BME280;36550;50.472;19.744;2023-02-21T03:43:24;97249.64;;;6.79;89.01
50302;BME280;36550;50.472;19.744;2023-02-21T03:46:48;97246.64;;;6.78;89.08
50302;BME280;36550;50.472;19.744;2023-02-21T03:49:53;97234.70;;;6.80;89.46
50302;BME280;36550;50.472;19.744;2023-02-21T03:52:59;97236.33;;;6.81;89.34
50302;BME280;36550;50.472;19.744;2023-02-21T03:55:42;97230.33;;;6.80;89.92
50302;BME280;36550;50.472;19.744;2023-02-21T03:59:21;97231.67;;;6.80;90.00
50302;BME280;36550;50.472;19.744;2023-02-21T04:02:45;97231.23;;;6.81;89.88
50302;BME280;36550;50.472;19.744;2023-02-21T04:06:09;97235.60;;;6.81;90.30
50302;BME280;36550;50.472;19.744;2023-02-21T04:09:35;97232.89;;;6.83;90.22
50302;BME280;36550;50.472;19.744;2023-02-21T04:12:38;97231.45;;;6.84;90.23
50302;BME280;36550;50.472;19.744;2023-02-21T04:16:06;97231.14;;;6.87;90.23
50302;BME280;36550;50.472;19.744;2023-02-21T04:19:49;97233.27;;;6.89;90.54
50302;BME280;36550;50.472;19.744;2023-02-21T04:23:21;97231.70;;;6.92;90.18
50302;BME280;36550;50.472;19.744;2023-02-21T04:27:04;97230.00;;;6.95;90.35
50302;BME280;36550;50.472;19.744;2023-02-21T04:30:48;97234.15;;;6.96;90.30
50302;BME280;36550;50.472;19.744;2023-02-21T04:34:16;97218.93;;;6.97;90.09
50302;BME280;36550;50.472;19.744;2023-02-21T04:37:59;97219.11;;;6.98;89.64
50302;BME280;36550;50.472;19.744;2023-02-21T04:41:25;97216.95;;;7.00;89.57
50302;BME280;36550;50.472;19.744;2023-02-21T04:45:09;97216.74;;;7.03;89.63
50302;BME280;36550;50.472;19.744;2023-02-21T04:47:53;97219.52;;;7.03;89.89
50302;BME280;36550;50.472;19.744;2023-02-21T04:50:57;97211.29;;;7.06;89.87
50302;BME280;36550;50.472;19.744;2023-02-21T04:54:41;97215.23;;;7.08;90.21
50302;BME280;36550;50.472;19.744;2023-02-21T04:58:05;97215.34;;;7.08;90.12
50302;BME280;36550;50.472;19.744;2023-02-21T05:01:49;97210.51;;;7.09;89.86
50302;BME280;36550;50.472;19.744;2023-02-21T05:05:32;97209.20;;;7.09;90.06
50302;BME280;36550;50.472;19.744;2023-02-21T05:09:16;97205.59;;;7.08;89.95
50302;BME280;36550;50.472;19.744;2023-02-21T05:12:38;97201.08;;;7.09;90.03
50302;BME280;36550;50.472;19.744;2023-02-21T05:16:21;97202.95;;;7.09;90.21
50302;BME280;36550;50.472;19.744;2023-02-21T05:20:05;97193.34;;;7.09;90.11
50302;BME280;36550;50.472;19.744;2023-02-21T05:23:20;97198.14;;;7.09;90.10
50302;BME280;36550;50.472;19.744;2023-02-21T05:26:45;97196.87;;;7.11;89.84
50302;BME280;36550;50.472;19.744;2023-02-21T05:30:10;97198.58;;;7.11;89.75
50302;BME280;36550;50.472;19.744;2023-02-21T05:32:55;97202.64;;;7.10;89.88
50302;BME280;36550;50.472;19.744;2023-02-21T05:35:38;97199.14;;;7.10;89.97
50302;BME280;36550;50.472;19.744;2023-02-21T05:38:23;97202.48;;;7.12;90.29
50302;BME280;36550;50.472;19.744;2023-02-21T05:41:08;97204.38;;;7.13;90.18
50302;BME280;36550;50.472;19.744;2023-02-21T05:44:32;97207.59;;;7.15;90.30
50302;BME280;36550;50.472;19.744;2023-02-21T05:47:58;97215.73;;;7.15;90.06
50302;BME280;36550;50.472;19.744;2023-02-21T05:51:26;97209.40;;;7.17;90.01
50302;BME280;36550;50.472;19.744;2023-02-21T05:55:10;97214.27;;;7.20;89.91
50302;BME280;36550;50.472;19.744;2023-02-21T05:58:35;97217.46;;;7.23;89.78
50302;BME280;36550;50.472;19.744;2023-02-21T06:02:19;97227.29;;;7.27;89.67
50302;BME280;36550;50.472;19.744;2023-02-21T06:05:57;97230.94;;;7.29;89.65
50302;BME280;36550;50.472;19.744;2023-02-21T06:09:03;97228.16;;;7.32;89.50
50302;BME280;36550;50.472;19.744;2023-02-21T06:12:46;97226.89;;;7.37;89.39
50302;BME280;36550;50.472;19.744;2023-02-21T06:16:10;97232.67;;;7.39;89.27
50302;BME280;36550;50.472;19.744;2023-02-21T06:18:57;97238.05;;;7.38;89.21
50302;BME280;36550;50.472;19.744;2023-02-21T06:22:41;97241.84;;;7.46;89.11
50302;BME280;36550;50.472;19.744;2023-02-21T06:26:25;97236.70;;;7.50;89.12
50302;BME280;36550;50.472;19.744;2023-02-21T06:29:43;97238.55;;;7.54;88.86
50302;BME280;36550;50.472;19.744;2023-02-21T06:33:09;97240.03;;;7.56;88.71
50302;BME280;36550;50.472;19.744;2023-02-21T06:36:27;97242.70;;;7.59;88.57
50302;BME280;36550;50.472;19.744;2023-02-21T06:39:50;97240.80;;;7.69;88.38
50302;BME280;36550;50.472;19.744;2023-02-21T06:42:39;97235.41;;;7.78;88.08
50302;BME280;36550;50.472;19.744;2023-02-21T06:46:24;97246.22;;;7.84;87.88
50302;BME280;36550;50.472;19.744;2023-02-21T06:50:07;97249.85;;;7.92;87.70
50302;BME280;36550;50.472;19.744;2023-02-21T06:53:21;97255.88;;;7.96;87.54
50302;BME280;36550;50.472;19.744;2023-02-21T06:57:05;97251.05;;;7.95;87.40
50302;BME280;36550;50.472;19.744;2023-02-21T07:00:17;97256.63;;;7.91;87.43
50302;BME280;36550;50.472;19.744;2023-02-21T07:03:17;97263.36;;;7.90;87.46
50302;BME280;36550;50.472;19.744;2023-02-21T07:07:01;97262.59;;;7.90;87.45
50302;BME280;36550;50.472;19.744;2023-02-21T07:10:19;97258.27;;;7.92;87.34
50302;BME280;36550;50.472;19.744;2023-02-21T07:13:23;97262.00;;;7.97;87.16
50302;BME280;36550;50.472;19.744;2023-02-21T07:17:07;97257.09;;;8.06;87.19
50302;BME280;36550;50.472;19.744;2023-02-21T07:20:31;97265.49;;;8.12;86.95
50302;BME280;36550;50.472;19.744;2023-02-21T07:23:55;97254.50;;;8.14;86.87
50302;BME280;36550;50.472;19.744;2023-02-21T07:27:39;97257.05;;;8.19;86.78
50302;BME280;36550;50.472;19.744;2023-02-21T07:30:45;97257.85;;;8.24;86.78
50302;BME280;36550;50.472;19.744;2023-02-21T07:34:11;97270.60;;;8.27;86.51
50302;BME280;36550;50.472;19.744;2023-02-21T07:37:54;97270.46;;;8.35;86.06
50302;BME280;36550;50.472;19.744;2023-02-21T07:41:02;97268.61;;;8.52;86.11
50302;BME280;36550;50.472;19.744;2023-02-21T07:44:32;97276.30;;;8.63;85.99
50302;BME280;36550;50.472;19.744;2023-02-21T07:47:45;97282.32;;;8.67;85.60
50302;BME280;36550;50.472;19.744;2023-02-21T07:51:09;97288.63;;;8.76;85.27
50302;BME280;36550;50.472;19.744;2023-02-21T07:54:42;97284.20;;;8.78;85.23
50302;BME280;36550;50.472;19.744;2023-02-21T07:58:06;97286.29;;;8.73;85.29
50302;BME280;36550;50.472;19.744;2023-02-21T08:01:13;97282.69;;;8.66;85.36
50302;BME280;36550;50.472;19.744;2023-02-21T08:04:57;97281.29;;;8.57;85.62
50302;BME280;36550;50.472;19.744;2023-02-21T08:08:02;97310.81;;;8.59;85.66
50302;BME280;36550;50.472;19.744;2023-02-21T08:11:26;97313.89;;;8.65;85.52
50302;BME280;36550;50.472;19.744;2023-02-21T08:15:10;97330.30;;;8.70;85.64
50302;BME280;36550;50.472;19.744;2023-02-21T08:18:54;97331.34;;;8.63;85.71
50302;BME280;36550;50.472;19.744;2023-02-21T08:22:19;97342.27;;;8.53;86.03
50302;BME280;36550;50.472;19.744;2023-02-21T08:25:31;97343.63;;;8.46;86.44
50302;BME280;36550;50.472;19.744;2023-02-21T08:28:35;97337.11;;;8.60;86.51
50302;BME280;36550;50.472;19.744;2023-02-21T08:32:13;97337.28;;;8.83;86.19
50302;BME280;36550;50.472;19.744;2023-02-21T08:35:24;97333.52;;;8.98;85.74
50302;BME280;36550;50.472;19.744;2023-02-21T08:38:51;97341.23;;;9.07;85.47
50302;BME280;36550;50.472;19.744;2023-02-21T08:42:15;97362.00;;;9.09;84.99
50302;BME280;36550;50.472;19.744;2023-02-21T08:45:40;97358.95;;;9.12;85.02
50302;BME280;36550;50.472;19.744;2023-02-21T08:49:04;97364.35;;;9.21;84.86
50302;BME280;36550;50.472;19.744;2023-02-21T08:52:08;97364.35;;;9.17;84.54
50302;BME280;36550;50.472;19.744;2023-02-21T08:55:33;97364.20;;;9.03;84.98
50302;BME280;36550;50.472;19.744;2023-02-21T08:58:57;97363.80;;;8.96;85.28
50302;BME280;36550;50.472;19.744;2023-02-21T09:02:02;97368.78;;;8.94;85.25
50302;BME280;36550;50.472;19.744;2023-02-21T09:05:49;97370.64;;;8.77;86.64
50302;BME280;36550;50.472;19.744;2023-02-21T09:09:20;97368.04;;;8.49;87.65
50302;BME280;36550;50.472;19.744;2023-02-21T09:12:58;97372.65;;;8.33;88.37
50302;BME280;36550;50.472;19.744;2023-02-21T09:16:41;97369.98;;;8.33;89.08
50302;BME280;36550;50.472;19.744;2023-02-21T09:20:07;97377.08;;;8.38;88.67
50302;BME280;36550;50.472;19.744;2023-02-21T09:23:07;97370.27;;;8.37;88.92
50302;BME280;36550;50.472;19.744;2023-02-21T09:26:45;97372.71;;;8.40;88.62
50302;BME280;36550;50.472;19.744;2023-02-21T09:30:20;97372.15;;;8.51;88.47
50302;BME280;36550;50.472;19.744;2023-02-21T09:33:10;97375.80;;;8.70;88.05
50302;BME280;36550;50.472;19.744;2023-02-21T09:36:54;97386.34;;;8.74;87.85
50302;BME280;36550;50.472;19.744;2023-02-21T09:40:28;97378.52;;;8.84;87.45
50302;BME280;36550;50.472;19.744;2023-02-21T09:43:39;97376.96;;;8.98;87.36
50302;BME280;36550;50.472;19.744;2023-02-21T09:47:07;97381.02;;;9.04;86.88
50302;BME280;36550;50.472;19.744;2023-02-21T09:50:22;97387.19;;;9.00;86.41
50302;BME280;36550;50.472;19.744;2023-02-21T09:53:32;97395.44;;;9.05;86.37
50302;BME280;36550;50.472;19.744;2023-02-21T09:56:58;97398.59;;;9.09;86.19
50302;BME280;36550;50.472;19.744;2023-02-21T10:00:17;97408.51;;;8.99;85.85
50302;BME280;36550;50.472;19.744;2023-02-21T10:03:13;97424.32;;;8.91;86.30
50302;BME280;36550;50.472;19.744;2023-02-21T10:09:28;97432.58;;;8.58;87.60
50302;BME280;36550;50.472;19.744;2023-02-21T10:13:30;97439.80;;;8.36;88.46
50302;BME280;36550;50.472;19.744;2023-02-21T10:16:41;97450.04;;;8.39;88.92
50302;BME280;36550;50.472;19.744;2023-02-21T10:20:26;97447.62;;;8.38;88.54
50302;BME280;36550;50.472;19.744;2023-02-21T10:23:40;97439.77;;;8.34;87.59
50302;BME280;36550;50.472;19.744;2023-02-21T10:27:06;97446.14;;;8.31;86.49
50302;BME280;36550;50.472;19.744;2023-02-21T10:30:59;97451.20;;;8.23;86.66
50302;BME280;36550;50.472;19.744;2023-02-21T10:34:42;97453.92;;;8.41;87.42
50302;BME280;36550;50.472;19.744;2023-02-21T10:38:13;97452.45;;;8.54;87.41
50302;BME280;36550;50.472;19.744;2023-02-21T10:41:55;97448.04;;;8.59;87.58
50302;BME280;36550;50.472;19.744;2023-02-21T10:45:41;97442.09;;;8.57;87.00
50302;BME280;36550;50.472;19.744;2023-02-21T10:49:12;97434.15;;;8.59;86.97
50302;BME280;36550;50.472;19.744;2023-02-21T10:52:20;97434.48;;;8.57;87.02
50302;BME280;36550;50.472;19.744;2023-02-21T10:59:40;97442.15;;;8.58;86.16
50302;BME280;36550;50.472;19.744;2023-02-21T11:03:23;97437.08;;;8.67;86.04
50302;BME280;36550;50.472;19.744;2023-02-21T11:15:35;97445.34;;;9.20;83.50
50302;BME280;36550;50.472;19.744;2023-02-21T11:19:25;97437.84;;;9.52;81.13
50302;BME280;36550;50.472;19.744;2023-02-21T11:27:05;97438.41;;;10.15;79.40
50302;BME280;36550;50.472;19.744;2023-02-21T11:34:41;97430.98;;;10.38;78.97
50302;BME280;36550;50.472;19.744;2023-02-21T11:41:02;97426.44;;;10.76;78.83
50302;BME280;36550;50.472;19.744;2023-02-21T11:47:36;97413.41;;;11.70;75.84
50302;BME280;36550;50.472;19.744;2023-02-21T11:50:43;97417.41;;;12.00;71.58
50302;BME280;36550;50.472;19.744;2023-02-21T11:53:42;97424.39;;;11.88;70.87
50302;BME280;36550;50.472;19.744;2023-02-21T11:56:31;97428.79;;;11.64;70.32
50302;BME280;36550;50.472;19.744;2023-02-21T12:08:53;97457.20;;;10.87;73.44
50302;BME280;36550;50.472;19.744;2023-02-21T12:13:02;97464.19;;;10.64;73.95
50302;BME280;36550;50.472;19.744;2023-02-21T12:16:53;97466.44;;;10.43;74.11
50302;BME280;36550;50.472;19.744;2023-02-21T12:23:36;97473.23;;;10.31;74.16
50302;BME280;36550;50.472;19.744;2023-02-21T12:36:20;97467.11;;;9.66;75.82
50302;BME280;36550;50.472;19.744;2023-02-21T12:39:39;97458.48;;;9.49;76.23
50302;BME280;36550;50.472;19.744;2023-02-21T12:42:53;97468.89;;;9.25;77.00
50302;BME280;36550;50.472;19.744;2023-02-21T12:49:48;97466.67;;;9.14;78.07
50302;BME280;36550;50.472;19.744;2023-02-21T12:56:15;97471.66;;;9.24;78.51
50302;BME280;36550;50.472;19.744;2023-02-21T12:59:14;97464.14;;;9.30;78.55
50302;BME280;36550;50.472;19.744;2023-02-21T13:03:12;97464.27;;;9.46;78.72
50302;BME280;36550;50.472;19.744;2023-02-21T13:06:57;97470.45;;;9.54;78.91
50302;BME280;36550;50.472;19.744;2023-02-21T13:10:30;97475.54;;;9.58;78.29
50302;BME280;36550;50.472;19.744;2023-02-21T13:13:28;97470.91;;;9.53;78.16
50302;BME280;36550;50.472;19.744;2023-02-21T13:16:34;97455.42;;;9.50;77.98
50302;BME280;36550;50.472;19.744;2023-02-21T13:20:01;97455.90;;;9.40;76.54
50302;BME280;36550;50.472;19.744;2023-02-21T13:26:59;97450.48;;;9.34;74.49
50302;BME280;36550;50.472;19.744;2023-02-21T13:30:36;97446.05;;;9.29;74.91
50302;BME280;36550;50.472;19.744;2023-02-21T13:34:18;97448.04;;;9.21;74.88
50302;BME280;36550;50.472;19.744;2023-02-21T13:38:05;97451.31;;;9.16;73.84
50302;BME280;36550;50.472;19.744;2023-02-21T13:41:49;97457.65;;;9.16;73.61
50302;BME280;36550;50.472;19.744;2023-02-21T13:48:22;97471.76;;;9.32;71.68
50302;BME280;36550;50.472;19.744;2023-02-21T13:51:46;97467.02;;;9.49;70.46
50302;BME280;36550;50.472;19.744;2023-02-21T14:01:49;97470.14;;;9.81;69.14
50302;BME280;36550;50.472;19.744;2023-02-21T14:05:16;97475.42;;;9.89;68.78
50302;BME280;36550;50.472;19.744;2023-02-21T14:09:08;97475.92;;;9.87;67.81
50302;BME280;36550;50.472;19.744;2023-02-21T14:12:28;97480.17;;;9.91;67.69
50302;BME280;36550;50.472;19.744;2023-02-21T14:16:13;97485.67;;;9.98;67.69
50302;BME280;36550;50.472;19.744;2023-02-21T14:19:26;97490.89;;;9.96;66.93
50302;BME280;36550;50.472;19.744;2023-02-21T14:22:40;97490.66;;;10.01;68.00
50302;BME280;36550;50.472;19.744;2023-02-21T14:26:38;97494.97;;;10.13;67.28
50302;BME280;36550;50.472;19.744;2023-02-21T14:33:20;97512.00;;;10.24;66.73
50302;BME280;36550;50.472;19.744;2023-02-21T14:36:45;97507.60;;;10.26;66.93
50302;BME280;36550;50.472;19.744;2023-02-21T14:40:29;97510.92;;;10.14;66.52
50302;BME280;36550;50.472;19.744;2023-02-21T14:43:36;97515.42;;;10.00;67.75
50302;BME280;36550;50.472;19.744;2023-02-21T15:08:24;97539.85;;;8.86;70.72
50302;BME280;36550;50.472;19.744;2023-02-21T15:14:25;97546.59;;;8.62;71.48
50302;BME280;36550;50.472;19.744;2023-02-21T15:17:36;97556.44;;;8.55;71.92
50302;BME280;36550;50.472;19.744;2023-02-21T15:20:41;97554.89;;;8.50;72.10
50302;BME280;36550;50.472;19.744;2023-02-21T15:24:16;97556.05;;;8.43;72.38
50302;BME280;36550;50.472;19.744;2023-02-21T15:27:30;97554.20;;;8.36;72.50
50302;BME280;36550;50.472;19.744;2023-02-21T15:30:59;97564.42;;;8.27;72.85
50302;BME280;36550;50.472;19.744;2023-02-21T15:34:42;97560.95;;;8.23;73.03
50302;BME280;36550;50.472;19.744;2023-02-21T15:38:19;97576.08;;;8.21;72.99
50302;BME280;36550;50.472;19.744;2023-02-21T15:41:55;97582.63;;;8.17;73.32
50302;BME280;36550;50.472;19.744;2023-02-21T15:44:55;97585.17;;;8.12;73.58
50302;BME280;36550;50.472;19.744;2023-02-21T15:48:38;97588.67;;;8.04;73.90
50302;BME280;36550;50.472;19.744;2023-02-21T15:52:28;97592.08;;;7.99;73.98
50302;BME280;36550;50.472;19.744;2023-02-21T15:56:22;97601.27;;;7.97;74.16
50302;BME280;36550;50.472;19.744;2023-02-21T16:00:16;97600.56;;;7.91;74.28
50302;BME280;36550;50.472;19.744;2023-02-21T16:03:31;97601.38;;;7.76;74.42
50302;BME280;36550;50.472;19.744;2023-02-21T16:07:19;97615.15;;;7.64;74.61
50302;BME280;36550;50.472;19.744;2023-02-21T16:11:04;97620.59;;;7.54;74.84
50302;BME280;36550;50.472;19.744;2023-02-21T16:14:58;97625.53;;;7.43;74.91
50302;BME280;36550;50.472;19.744;2023-02-21T16:18:41;97632.44;;;7.35;75.09
50302;BME280;36550;50.472;19.744;2023-02-21T16:22:31;97635.60;;;7.27;75.27
50302;BME280;36550;50.472;19.744;2023-02-21T16:26:25;97646.11;;;7.26;75.33
50302;BME280;36550;50.472;19.744;2023-02-21T16:30:10;97651.58;;;7.24;75.39
50302;BME280;36550;50.472;19.744;2023-02-21T16:33:34;97657.51;;;7.19;75.33
50302;BME280;36550;50.472;19.744;2023-02-21T16:37:21;97658.45;;;7.11;75.14
50302;BME280;36550;50.472;19.744;2023-02-21T16:40:51;97664.39;;;7.05;75.20
50302;BME280;36550;50.472;19.744;2023-02-21T16:44:35;97668.00;;;6.96;75.21
50302;BME280;36550;50.472;19.744;2023-02-21T16:48:26;97669.92;;;6.82;75.24
50302;BME280;36550;50.472;19.744;2023-02-21T16:51:49;97683.89;;;6.70;75.36
50302;BME280;36550;50.472;19.744;2023-02-21T16:54:52;97688.39;;;6.66;75.49
50302;BME280;36550;50.472;19.744;2023-02-21T16:58:23;97694.34;;;6.64;76.04
50302;BME280;36550;50.472;19.744;2023-02-21T17:02:07;97695.84;;;6.64;76.32
50302;BME280;36550;50.472;19.744;2023-02-21T17:05:50;97706.28;;;6.62;76.70
50302;BME280;36550;50.472;19.744;2023-02-21T17:09:36;97713.55;;;6.66;76.67
50302;BME280;36550;50.472;19.744;2023-02-21T17:13:21;97719.98;;;6.66;76.55
50302;BME280;36550;50.472;19.744;2023-02-21T17:17:05;97733.02;;;6.60;76.39
50302;BME280;36550;50.472;19.744;2023-02-21T17:20:49;97737.88;;;6.55;76.37
50302;BME280;36550;50.472;19.744;2023-02-21T17:24:33;97739.60;;;6.55;76.34
50302;BME280;36550;50.472;19.744;2023-02-21T17:28:17;97740.11;;;6.57;76.35
50302;BME280;36550;50.472;19.744;2023-02-21T17:32:01;97745.98;;;6.55;76.24
50302;BME280;36550;50.472;19.744;2023-02-21T17:35:44;97749.98;;;6.55;75.79
50302;BME280;36550;50.472;19.744;2023-02-21T17:39:29;97753.89;;;6.59;75.27
50302;BME280;36550;50.472;19.744;2023-02-21T17:43:14;97759.11;;;6.61;75.18
50302;BME280;36550;50.472;19.744;2023-02-21T17:46:56;97758.19;;;6.61;74.99
50302;BME280;36550;50.472;19.744;2023-02-21T17:50:40;97763.25;;;6.61;74.60
50302;BME280;36550;50.472;19.744;2023-02-21T17:54:12;97766.84;;;6.63;74.97
50302;BME280;36550;50.472;19.744;2023-02-21T17:57:55;97779.20;;;6.64;74.91
50302;BME280;36550;50.472;19.744;2023-02-21T18:01:39;97783.70;;;6.62;74.79
50302;BME280;36550;50.472;19.744;2023-02-21T18:05:23;97775.95;;;6.54;74.88
50302;BME280;36550;50.472;19.744;2023-02-21T18:09:07;97779.99;;;6.49;75.01
50302;BME280;36550;50.472;19.744;2023-02-21T18:12:52;97783.38;;;6.44;75.06
50302;BME280;36550;50.472;19.744;2023-02-21T18:16:35;97783.17;;;6.39;75.25
50302;BME280;36550;50.472;19.744;2023-02-21T18:20:19;97786.46;;;6.35;74.97
50302;BME280;36550;50.472;19.744;2023-02-21T18:24:04;97792.05;;;6.35;74.83
50302;BME280;36550;50.472;19.744;2023-02-21T18:27:47;97794.82;;;6.35;74.82
50302;BME280;36550;50.472;19.744;2023-02-21T18:31:34;97797.64;;;6.34;74.83
50302;BME280;36550;50.472;19.744;2023-02-21T18:35:18;97806.11;;;6.30;74.50
50302;BME280;36550;50.472;19.744;2023-02-21T18:39:02;97807.85;;;6.30;74.41
50302;BME280;36550;50.472;19.744;2023-02-21T18:42:26;97812.10;;;6.31;74.54
50302;BME280;36550;50.472;19.744;2023-02-21T18:45:12;97815.56;;;6.27;73.98
50302;BME280;36550;50.472;19.744;2023-02-21T18:47:57;97817.36;;;6.24;73.69
50302;BME280;36550;50.472;19.744;2023-02-21T18:51:01;97824.35;;;6.22;73.53
50302;BME280;36550;50.472;19.744;2023-02-21T18:54:46;97832.85;;;6.22;73.67
50302;BME280;36550;50.472;19.744;2023-02-21T18:58:09;97834.23;;;6.16;73.16
50302;BME280;36550;50.472;19.744;2023-02-21T19:01:14;97834.38;;;6.14;73.18
50302;BME280;36550;50.472;19.744;2023-02-21T19:04:57;97832.75;;;6.11;73.43
50302;BME280;36550;50.472;19.744;2023-02-21T19:08:41;97843.25;;;6.07;72.76
50302;BME280;36550;50.472;19.744;2023-02-21T19:12:24;97841.12;;;6.05;73.21
50302;BME280;36550;50.472;19.744;2023-02-21T19:16:10;97847.88;;;6.02;72.71
50302;BME280;36550;50.472;19.744;2023-02-21T19:19:53;97856.88;;;5.97;71.82
50302;BME280;36550;50.472;19.744;2023-02-21T19:23:21;97853.86;;;5.94;71.80
50302;BME280;36550;50.472;19.744;2023-02-21T19:27:05;97853.45;;;5.91;71.07
50302;BME280;36550;50.472;19.744;2023-02-21T19:30:27;97849.34;;;5.89;71.58
50302;BME280;36550;50.472;19.744;2023-02-21T19:33:32;97853.48;;;5.87;70.94
50302;BME280;36550;50.472;19.744;2023-02-21T19:37:17;97857.83;;;5.84;71.07
50302;BME280;36550;50.472;19.744;2023-02-21T19:41:00;97861.96;;;5.81;70.38
50302;BME280;36550;50.472;19.744;2023-02-21T19:44:44;97868.94;;;5.79;69.73
50302;BME280;36550;50.472;19.744;2023-02-21T19:48:28;97870.77;;;5.79;70.61
50302;BME280;36550;50.472;19.744;2023-02-21T19:52:11;97876.33;;;5.77;70.52
50302;BME280;36550;50.472;19.744;2023-02-21T19:55:56;97873.53;;;5.73;70.68
50302;BME280;36550;50.472;19.744;2023-02-21T19:59:40;97870.17;;;5.72;71.08
50302;BME280;36550;50.472;19.744;2023-02-21T20:03:24;97873.54;;;5.71;70.44
50302;BME280;36550;50.472;19.744;2023-02-21T20:06:31;97874.74;;;5.72;70.44
50302;BME280;36550;50.472;19.744;2023-02-21T20:09:18;97875.74;;;5.72;70.46
50302;BME280;36550;50.472;19.744;2023-02-21T20:12:06;97879.23;;;5.71;69.97
50302;BME280;36550;50.472;19.744;2023-02-21T20:14:50;97883.03;;;5.71;70.60
50302;BME280;36550;50.472;19.744;2023-02-21T20:17:36;97877.15;;;5.70;70.58
50302;BME280;36550;50.472;19.744;2023-02-21T20:20:20;97881.60;;;5.68;70.28